createdAt,value
2019-05-02T00:00:29.127Z,0.087
2019-05-02T00:05:50.720Z,0.076
2019-05-02T00:11:07.097Z,0.107
2019-05-02T00:16:27.299Z,0.079
2019-05-02T00:21:43.665Z,0.074
2019-05-02T00:27:04.946Z,0.078
2019-05-02T00:32:24.739Z,0.105
2019-05-02T00:37:45.286Z,0.077
2019-05-02T00:43:06.721Z,0.066
2019-05-02T00:48:23.053Z,0.093
2019-05-02T00:53:39.391Z,0.072
2019-05-02T00:59:07.323Z,0.069
2019-05-02T01:04:27.416Z,0.07
2019-05-02T01:09:46.718Z,0.084
2019-05-02T01:15:08.257Z,0.067
2019-05-02T01:20:27.384Z,0.07
2019-05-02T01:25:47.185Z,0.065
2019-05-02T01:31:07.908Z,0.071
2019-05-02T01:36:36.665Z,0.066
2019-05-02T01:41:59.815Z,0.07
2019-05-02T01:47:19.448Z,0.068
2019-05-02T01:52:36.544Z,0.061
2019-05-02T01:57:58.770Z,0.071
2019-05-02T02:03:14.445Z,0.065
2019-05-02T02:08:32.397Z,0.073
2019-05-02T02:13:57.461Z,0.066
2019-05-02T02:19:14.184Z,0.073
2019-05-02T02:24:30.328Z,0.073
2019-05-02T02:29:45.888Z,0.07
2019-05-02T02:35:03.348Z,0.067
2019-05-02T02:40:33.466Z,0.072
2019-05-02T02:45:51.688Z,0.066
2019-05-02T02:51:21.957Z,0.064
2019-05-02T02:56:40.898Z,0.06
2019-05-02T03:02:08.619Z,0.056
2019-05-02T03:07:29.057Z,0.058
2019-05-02T03:12:52.855Z,0.057
2019-05-02T03:18:09.778Z,0.068
2019-05-02T03:23:25.955Z,0.053
2019-05-02T03:28:42.766Z,0.049
2019-05-02T03:34:03.443Z,0.047
2019-05-02T03:39:18.758Z,0.044
2019-05-02T03:44:36.050Z,0.048
2019-05-02T03:49:53.703Z,0.046
2019-05-02T03:55:10.891Z,0.057
2019-05-02T04:00:28.380Z,0.06
2019-05-02T04:05:44.838Z,0.065
2019-05-02T04:11:01.790Z,0.072
2019-05-02T04:16:18.923Z,0.07
2019-05-02T04:21:38.366Z,0.059
2019-05-02T04:26:59.180Z,0.065
2019-05-02T04:32:14.385Z,0.062
2019-05-02T04:37:40.900Z,0.069
2019-05-02T04:43:01.795Z,0.058
2019-05-02T04:48:28.510Z,0.066
2019-05-02T04:54:08.888Z,0.065
2019-05-02T04:59:49.856Z,0.067
2019-05-02T05:05:25.913Z,0.073
2019-05-02T05:10:45.179Z,0.268
2019-05-02T05:16:14.999Z,0.303
2019-05-02T05:21:33.880Z,0.284
2019-05-02T05:27:00.069Z,0.224
2019-05-02T05:32:22.008Z,0.157
2019-05-02T05:37:43.114Z,0.101
2019-05-02T05:43:14.223Z,0.069
2019-05-02T06:14:46.731Z,-0.005
2019-05-02T06:46:27.411Z,0.02
2019-05-02T06:51:43.223Z,0.022
2019-05-02T06:56:58.871Z,0.019
2019-05-02T07:02:15.110Z,0.022
2019-05-02T07:07:36.617Z,0.036
2019-05-02T07:13:02.225Z,0.029
2019-05-02T07:18:33.732Z,0.011
2019-05-02T07:23:56.414Z,0.009
2019-05-02T07:29:12.238Z,0.044
2019-05-02T07:34:36.089Z,0.061
2019-05-02T07:39:51.696Z,0.043
2019-05-02T07:45:09.240Z,0.047
2019-05-02T07:50:26.940Z,0.063
2019-05-02T07:55:43.573Z,0.062
2019-05-02T08:01:07.911Z,0.059
2019-05-02T08:06:35.153Z,0.042
2019-05-02T08:12:02.761Z,0.035
2019-05-02T08:17:20.022Z,0.043
2019-05-02T08:22:43.936Z,0.027
2019-05-02T08:28:09.985Z,0.003
2019-05-02T08:33:34.587Z,0.023
2019-05-02T08:38:56.350Z,0.016
2019-05-02T08:44:16.681Z,0.035
2019-05-02T08:49:33.762Z,-0.005
2019-05-02T08:54:49.131Z,0.006
2019-05-02T09:00:05.482Z,0.04
2019-05-02T09:05:25.188Z,0.018
2019-05-02T09:10:42.313Z,0.049
2019-05-02T09:16:05.802Z,0.057
2019-05-02T09:21:21.935Z,0.04
2019-05-02T09:26:48.113Z,0.045
2019-05-02T09:32:05.774Z,0.025
2019-05-02T09:37:22.770Z,0.049
2019-05-02T09:42:47.472Z,0.025
2019-05-02T09:48:22.537Z,0.026
2019-05-02T09:53:44.799Z,0.004
2019-05-02T09:59:03.031Z,0.019
2019-05-02T10:04:47.069Z,0.038
2019-05-02T10:15:22.186Z,0.026
2019-05-02T10:20:38.708Z,0.037
2019-05-02T10:26:03.463Z,0.013
2019-05-02T10:47:03.976Z,0.008
2019-05-02T11:02:52.438Z,0.032
2019-05-02T11:08:12.057Z,0.047
2019-05-02T11:13:28.190Z,0.037
2019-05-02T11:18:49.648Z,0.051
2019-05-02T11:24:07.172Z,0.029
2019-05-02T11:29:26.577Z,0.037
2019-05-02T11:40:02.516Z,-0.004
2019-05-02T11:45:26.615Z,-0.007
2019-05-02T11:56:03.520Z,0.021
2019-05-02T12:01:35.302Z,0.007
2019-05-02T12:07:08.423Z,0.019
2019-05-02T13:10:11.685Z,0.045
2019-05-02T13:15:28.203Z,0.066
2019-05-02T13:20:44.138Z,0.069
2019-05-02T13:26:02.463Z,0.141
2019-05-02T13:31:39.800Z,0.215
2019-05-02T13:37:02.606Z,0.101
2019-05-02T13:42:18.771Z,0.057
2019-05-02T13:47:38.847Z,0.014
2019-05-02T17:23:03.198Z,-0.002
2019-05-02T17:44:12.808Z,0.001
2019-05-02T17:49:38.041Z,0.012
2019-05-02T18:00:12.947Z,0.013
2019-05-02T18:05:41.850Z,0.013
2019-05-02T18:11:00.172Z,0.015
2019-05-02T18:16:23.616Z,0.015
2019-05-02T18:21:38.312Z,0.022
2019-05-02T18:27:02.141Z,0.026
2019-05-02T18:32:21.787Z,0.02
2019-05-02T18:37:42.677Z,0.028
2019-05-02T18:43:05.106Z,0.032
2019-05-02T18:48:21.802Z,0.031
2019-05-02T18:53:42.431Z,0.027
2019-05-02T18:58:57.776Z,0.023
2019-05-02T19:04:13.200Z,0.026
2019-05-02T19:09:30.387Z,0.017
2019-05-02T19:14:50.203Z,0.021
2019-05-02T19:20:22.056Z,0.018
2019-05-02T19:25:42.186Z,0.017
2019-05-02T19:31:06.958Z,0.025
2019-05-02T19:36:27.675Z,0.024
2019-05-02T19:41:43.861Z,0.024
2019-05-02T19:46:59.455Z,0.029
2019-05-02T19:52:17.039Z,0.027
2019-05-02T19:57:32.354Z,0.025
2019-05-02T20:02:47.353Z,0.026
2019-05-02T20:08:03.731Z,0.024
2019-05-02T20:13:20.238Z,0.026
2019-05-02T20:18:47.054Z,0.024
2019-05-02T20:24:04.091Z,0.031
2019-05-02T20:29:33.434Z,0.035
2019-05-02T20:34:47.904Z,0.027
2019-05-02T20:40:02.844Z,0.022
2019-05-02T20:45:17.430Z,0.02
2019-05-02T20:50:31.929Z,0.03
2019-05-02T20:55:48.154Z,0.027
2019-05-02T21:01:07.967Z,0.017
2019-05-02T21:06:37.354Z,0.021
2019-05-02T21:11:58.305Z,0.019
2019-05-02T21:17:16.178Z,0.037
2019-05-02T21:22:32.847Z,0.037
2019-05-02T21:27:48.185Z,0.02
2019-05-02T21:33:03.817Z,0.023
2019-05-02T21:38:22.577Z,0.026
2019-05-02T21:43:37.203Z,0.012
2019-05-02T21:48:52.847Z,0.017
2019-05-02T21:54:05.169Z,0.017
2019-05-02T21:59:23.488Z,0.014
2019-05-02T22:04:42.174Z,0.004
2019-05-02T22:09:56.441Z,0.02
2019-05-02T22:15:14.843Z,0.011
2019-05-02T22:20:35.338Z,0.02
2019-05-02T22:25:54.621Z,0.026
2019-05-02T22:31:09.175Z,0.006
2019-05-02T22:36:25.894Z,0.012
2019-05-02T22:41:44.090Z,0.006
2019-05-02T22:46:58.990Z,0.021
2019-05-02T22:52:14.289Z,0.005
2019-05-02T23:02:41.856Z,0.015
2019-05-02T23:07:56.996Z,0.012
2019-05-02T23:18:32.322Z,-0.003
2019-05-02T23:39:20.785Z,0.004
2019-05-02T23:44:36.704Z,0.009
2019-05-02T23:49:53.675Z,0.022
2019-05-02T23:55:08.710Z,0.027
